createdAt,value
2023-05-12T00:02:32.967Z,78.50
2023-05-12T00:05:04.134Z,78.60
2023-05-12T00:07:32.704Z,78.70
2023-05-12T00:10:04.471Z,78.70
2023-05-12T00:12:33.136Z,78.70
2023-05-12T00:15:04.920Z,78.90
2023-05-12T00:17:34.570Z,78.80
2023-05-12T00:20:06.039Z,78.90
2023-05-12T00:22:37.405Z,78.90
2023-05-12T00:25:08.418Z,78.90
2023-05-12T00:27:40.166Z,78.90
2023-05-12T00:30:18.117Z,78.90
2023-05-12T00:32:48.625Z,78.90
2023-05-12T00:35:18.373Z,78.90
2023-05-12T00:37:47.657Z,78.90
2023-05-12T00:40:18.987Z,78.90
2023-05-12T00:42:47.931Z,78.90
2023-05-12T00:45:18.262Z,78.80
2023-05-12T00:47:49.403Z,78.70
2023-05-12T00:50:21.416Z,78.70
2023-05-12T00:52:52.399Z,78.70
2023-05-12T00:55:22.651Z,78.60
2023-05-12T00:57:54.774Z,78.70
2023-05-12T01:00:27.692Z,78.70
2023-05-12T01:02:58.752Z,78.80
2023-05-12T01:05:35.173Z,78.90
2023-05-12T01:08:05.757Z,79.00
2023-05-12T01:10:36.351Z,79.10
2023-05-12T01:13:05.120Z,79.20
2023-05-12T01:15:45.065Z,79.10
2023-05-12T01:18:20.967Z,79.20
2023-05-12T01:20:52.504Z,79.30
2023-05-12T01:23:32.988Z,79.20
2023-05-12T01:26:07.093Z,79.10
2023-05-12T01:28:37.039Z,79.10
2023-05-12T01:31:09.461Z,79.10
2023-05-12T01:33:42.080Z,79.10
2023-05-12T01:36:14.318Z,79.00
2023-05-12T01:38:43.525Z,79.00
2023-05-12T01:41:13.590Z,78.80
2023-05-12T01:43:43.425Z,78.60
2023-05-12T01:46:15.246Z,78.40
2023-05-12T01:48:46.779Z,78.30
2023-05-12T01:51:16.234Z,78.30
2023-05-12T01:53:45.148Z,78.30
2023-05-12T01:56:15.294Z,78.20
2023-05-12T01:58:44.184Z,78.30
2023-05-12T02:01:12.998Z,78.30
2023-05-12T02:03:41.546Z,78.20
2023-05-12T02:06:15.139Z,78.40
2023-05-12T02:08:44.268Z,78.50
2023-05-12T02:11:14.571Z,78.50
2023-05-12T02:13:44.852Z,78.40
2023-05-12T02:16:13.927Z,78.50
2023-05-12T02:18:43.204Z,78.50
2023-05-12T02:21:11.695Z,78.60
2023-05-12T02:23:40.353Z,78.60
2023-05-12T02:26:12.661Z,78.60
2023-05-12T02:28:42.636Z,78.60
2023-05-12T02:31:11.919Z,78.50
2023-05-12T02:33:40.559Z,78.50
2023-05-12T02:36:13.343Z,78.40
2023-05-12T02:38:43.607Z,78.50
2023-05-12T02:41:15.180Z,78.40
2023-05-12T02:43:45.740Z,78.50
2023-05-12T02:46:16.283Z,78.40
2023-05-12T02:48:45.417Z,78.30
2023-05-12T02:51:14.962Z,78.10
2023-05-12T02:53:43.912Z,78.20
2023-05-12T02:56:13.840Z,78.10
2023-05-12T02:58:43.429Z,78.20
2023-05-12T03:01:13.874Z,78.30
2023-05-12T03:03:43.942Z,78.30
2023-05-12T03:06:14.499Z,78.40
2023-05-12T03:08:46.654Z,78.50
2023-05-12T03:11:15.835Z,78.60
2023-05-12T03:13:44.751Z,78.70
2023-05-12T03:16:20.345Z,78.70
2023-05-12T03:18:51.938Z,78.70
2023-05-12T03:21:20.650Z,78.70
2023-05-12T03:23:55.710Z,78.80
2023-05-12T03:26:24.703Z,78.90
2023-05-12T03:28:53.534Z,78.80
2023-05-12T03:31:28.164Z,78.70
2023-05-12T03:33:59.976Z,78.60
2023-05-12T03:36:31.840Z,78.60
2023-05-12T03:39:02.947Z,78.50
2023-05-12T03:41:33.322Z,78.60
2023-05-12T03:44:02.332Z,78.70
2023-05-12T03:46:33.598Z,78.60
2023-05-12T03:49:02.529Z,78.50
2023-05-12T03:51:31.532Z,78.50
2023-05-12T03:54:01.840Z,78.40
2023-05-12T03:56:33.576Z,78.40
2023-05-12T03:59:04.786Z,78.30
2023-05-12T04:01:34.587Z,78.20
2023-05-12T04:04:04.549Z,78.20
2023-05-12T04:06:35.032Z,78.20
2023-05-12T04:09:05.532Z,78.10
2023-05-12T04:11:36.074Z,78.10
2023-05-12T04:14:06.003Z,78.00
2023-05-12T04:16:38.357Z,78.00
2023-05-12T04:19:12.555Z,78.00
2023-05-12T04:21:41.481Z,78.00
2023-05-12T04:24:10.227Z,78.10
2023-05-12T04:26:39.728Z,78.10
2023-05-12T04:29:09.276Z,78.10
2023-05-12T04:31:39.345Z,78.30
2023-05-12T04:34:08.173Z,78.20
2023-05-12T04:36:37.306Z,78.10
2023-05-12T04:39:07.662Z,78.10
2023-05-12T04:41:36.678Z,78.10
2023-05-12T04:44:05.913Z,78.10
2023-05-12T04:46:34.938Z,78.20
2023-05-12T04:49:13.152Z,78.20
2023-05-12T04:51:44.583Z,78.20
2023-05-12T04:54:14.955Z,78.20
2023-05-12T04:56:54.317Z,78.30
2023-05-12T04:59:27.263Z,78.20
2023-05-12T05:01:56.554Z,78.30
2023-05-12T05:04:30.032Z,78.30
2023-05-12T05:06:59.499Z,78.30
2023-05-12T05:09:33.414Z,78.20
2023-05-12T05:12:03.815Z,78.10
2023-05-12T05:14:34.146Z,77.90
2023-05-12T05:17:08.062Z,78.10
2023-05-12T05:19:53.091Z,77.90
2023-05-12T05:22:24.265Z,78.60
2023-05-12T05:24:55.296Z,78.50
2023-05-12T05:27:24.494Z,78.50
2023-05-12T05:29:55.397Z,78.50
2023-05-12T05:32:24.825Z,78.60
2023-05-12T05:34:59.015Z,78.60
2023-05-12T05:37:28.490Z,78.70
2023-05-12T05:39:58.282Z,78.70
2023-05-12T05:42:27.062Z,78.80
2023-05-12T05:44:58.681Z,78.80
2023-05-12T05:47:28.356Z,78.90
2023-05-12T05:50:00.469Z,78.80
2023-05-12T05:52:29.896Z,78.50
2023-05-12T05:54:58.526Z,78.60
2023-05-12T05:57:30.315Z,78.50
2023-05-12T06:00:01.110Z,78.40
2023-05-12T06:02:29.865Z,78.30
2023-05-12T06:05:00.282Z,78.20
2023-05-12T06:07:29.595Z,78.20
2023-05-12T06:09:58.364Z,78.10
2023-05-12T06:12:27.133Z,78.10
2023-05-12T06:14:55.676Z,78.00
2023-05-12T06:17:24.893Z,77.90
2023-05-12T06:19:54.312Z,77.80
2023-05-12T06:22:25.002Z,77.70
2023-05-12T06:24:54.151Z,77.60
2023-05-12T06:27:23.814Z,77.60
2023-05-12T06:29:57.714Z,77.40
2023-05-12T06:32:29.861Z,77.40
2023-05-12T06:35:01.903Z,77.40
2023-05-12T06:37:33.315Z,77.10
2023-05-12T06:40:02.748Z,77.10
2023-05-12T06:42:32.830Z,76.90
2023-05-12T06:45:03.732Z,76.70
2023-05-12T06:47:34.150Z,76.90
2023-05-12T06:50:03.596Z,76.90
2023-05-12T06:52:34.351Z,76.90
2023-05-12T06:55:04.939Z,76.90
2023-05-12T06:57:34.078Z,77.10
2023-05-12T07:00:05.681Z,76.90
2023-05-12T07:02:34.137Z,77.10
2023-05-12T07:05:03.113Z,77.20
2023-05-12T07:07:33.604Z,77.00
2023-05-12T07:10:02.338Z,77.10
2023-05-12T07:12:32.314Z,77.10
2023-05-12T07:15:00.929Z,76.90
2023-05-12T07:17:30.562Z,76.70
2023-05-12T07:20:01.752Z,76.90
2023-05-12T07:22:30.009Z,76.80
2023-05-12T07:25:01.740Z,76.80
2023-05-12T07:27:30.783Z,76.90
2023-05-12T07:29:59.334Z,76.50
2023-05-12T07:32:29.375Z,76.60
2023-05-12T07:34:57.802Z,76.70
2023-05-12T07:37:26.238Z,76.90
2023-05-12T07:39:54.860Z,77.00
2023-05-12T07:42:25.010Z,76.60
2023-05-12T07:44:55.879Z,76.70
2023-05-12T07:47:24.661Z,76.60
2023-05-12T07:49:53.399Z,76.50
2023-05-12T07:52:22.006Z,76.90
2023-05-12T07:54:50.439Z,76.70
2023-05-12T07:57:18.772Z,76.70
2023-05-12T07:59:49.796Z,76.40
2023-05-12T08:02:18.568Z,76.40
2023-05-12T08:04:47.792Z,77.00
2023-05-12T08:07:17.609Z,76.80
2023-05-12T08:09:46.147Z,76.60
2023-05-12T08:12:14.718Z,76.30
2023-05-12T08:14:44.377Z,76.10
2023-05-12T08:17:14.413Z,76.30
2023-05-12T08:19:42.863Z,76.50
2023-05-12T08:22:11.657Z,76.70
2023-05-12T08:24:41.977Z,76.40
2023-05-12T08:27:11.655Z,76.10
2023-05-12T08:29:43.577Z,75.60
2023-05-12T08:32:14.435Z,75.80
2023-05-12T08:34:42.840Z,75.50
2023-05-12T08:37:11.797Z,74.90
2023-05-12T08:39:40.911Z,74.60
2023-05-12T08:42:31.688Z,74.30
2023-05-12T08:45:02.793Z,73.70
2023-05-12T08:47:38.069Z,74.10
2023-05-12T08:50:08.261Z,73.20
2023-05-12T08:52:37.327Z,73.80
2023-05-12T08:55:06.917Z,73.80
2023-05-12T08:57:36.943Z,72.70
2023-05-12T09:00:10.098Z,73.00
2023-05-12T09:02:53.260Z,72.50
2023-05-12T09:05:24.233Z,72.10
2023-05-12T09:07:55.892Z,72.40
2023-05-12T09:10:35.115Z,71.60
2023-05-12T09:13:09.842Z,70.60
2023-05-12T09:15:45.077Z,71.40
2023-05-12T09:18:14.902Z,71.90
2023-05-12T09:20:44.068Z,70.70
2023-05-12T09:23:20.954Z,69.40
2023-05-12T09:26:01.805Z,68.30
2023-05-12T09:28:37.581Z,70.30
2023-05-12T09:31:17.269Z,70.30
2023-05-12T09:33:47.586Z,67.80
2023-05-12T09:36:19.490Z,69.80
2023-05-12T09:38:48.355Z,70.60
2023-05-12T09:41:24.343Z,69.20
2023-05-12T09:43:55.960Z,69.90
2023-05-12T09:46:27.036Z,70.30
2023-05-12T09:49:00.502Z,71.20
2023-05-12T09:51:31.181Z,71.80
2023-05-12T09:54:00.950Z,71.30
2023-05-12T09:56:32.520Z,71.80
2023-05-12T09:59:04.584Z,73.10
2023-05-12T10:01:34.124Z,72.70
2023-05-12T10:04:09.285Z,73.10
2023-05-12T10:06:41.944Z,73.80
2023-05-12T10:09:16.373Z,73.70
2023-05-12T10:11:45.444Z,73.80
2023-05-12T10:14:15.739Z,74.10
2023-05-12T10:16:47.705Z,74.40
2023-05-12T10:19:18.876Z,74.60
2023-05-12T10:21:51.402Z,74.80
2023-05-12T10:24:22.029Z,75.70
2023-05-12T10:26:50.915Z,75.90
2023-05-12T10:29:19.915Z,76.70
2023-05-12T10:31:49.304Z,76.30
2023-05-12T10:34:20.219Z,76.70
2023-05-12T10:36:50.403Z,76.70
2023-05-12T10:39:19.728Z,76.50
2023-05-12T10:41:48.384Z,76.60
2023-05-12T10:44:27.633Z,75.70
2023-05-12T10:46:59.528Z,76.50
2023-05-12T10:49:40.265Z,74.80
2023-05-12T10:52:08.863Z,74.80
2023-05-12T10:54:41.803Z,73.70
2023-05-12T10:57:18.305Z,73.90
2023-05-12T10:59:52.114Z,73.10
2023-05-12T11:02:27.496Z,73.00
2023-05-12T11:04:59.532Z,73.10
2023-05-12T11:07:30.484Z,73.80
2023-05-12T11:10:01.985Z,73.90
2023-05-12T11:12:33.395Z,74.30
2023-05-12T11:15:03.380Z,73.50
2023-05-12T11:17:32.747Z,73.70
2023-05-12T11:20:02.762Z,73.50
2023-05-12T11:22:31.592Z,73.30
2023-05-12T11:24:59.990Z,72.90
2023-05-12T11:27:29.735Z,72.70
2023-05-12T11:29:59.971Z,71.70
2023-05-12T11:32:29.858Z,71.50
2023-05-12T11:35:15.336Z,70.70
2023-05-12T11:37:45.214Z,70.00
2023-05-12T11:40:19.939Z,70.70
2023-05-12T11:43:07.114Z,70.70
2023-05-12T11:45:36.197Z,69.60
2023-05-12T11:48:09.268Z,68.50
2023-05-12T11:50:41.481Z,68.90
2023-05-12T11:53:15.145Z,67.40
2023-05-12T11:55:50.114Z,66.90
2023-05-12T11:58:22.914Z,69.20
2023-05-12T12:00:52.711Z,67.20
2023-05-12T12:03:21.341Z,68.00
2023-05-12T12:06:02.411Z,64.50
2023-05-12T12:08:31.977Z,68.20
2023-05-12T12:11:03.464Z,67.80
2023-05-12T12:13:32.959Z,67.80
2023-05-12T12:16:01.958Z,67.60
2023-05-12T12:18:30.428Z,69.40
2023-05-12T12:21:01.052Z,69.50
2023-05-12T12:23:35.308Z,69.50
2023-05-12T12:26:16.292Z,69.10
2023-05-12T12:28:44.734Z,69.00
2023-05-12T12:31:14.756Z,70.10
2023-05-12T12:33:43.344Z,69.90
2023-05-12T12:36:13.345Z,69.30
2023-05-12T12:38:42.867Z,71.00
2023-05-12T12:41:11.231Z,69.90
2023-05-12T12:43:40.056Z,70.30
2023-05-12T12:46:10.059Z,69.80
2023-05-12T12:48:39.734Z,70.40
2023-05-12T12:51:08.251Z,71.30
2023-05-12T12:53:37.958Z,71.00
2023-05-12T12:56:09.654Z,71.30
2023-05-12T12:58:39.425Z,71.70
2023-05-12T13:01:08.543Z,72.00
2023-05-12T13:03:37.169Z,71.80
2023-05-12T13:06:05.852Z,72.00
2023-05-12T13:08:35.052Z,72.30
2023-05-12T13:11:06.218Z,72.40
2023-05-12T13:13:35.283Z,72.50
2023-05-12T13:16:04.752Z,72.10
2023-05-12T13:18:33.381Z,72.30
2023-05-12T13:21:02.313Z,71.70
2023-05-12T13:23:31.011Z,71.90
2023-05-12T13:25:59.916Z,71.50
2023-05-12T13:28:30.218Z,70.90
2023-05-12T13:30:59.041Z,69.90
2023-05-12T13:33:27.712Z,69.20
2023-05-12T13:35:56.504Z,68.30
2023-05-12T13:38:27.358Z,68.30
2023-05-12T13:40:55.779Z,66.80
2023-05-12T13:43:24.717Z,66.90
2023-05-12T13:45:54.809Z,67.00
2023-05-12T13:48:23.490Z,66.10
2023-05-12T13:50:52.712Z,65.30
2023-05-12T13:53:22.038Z,65.40
2023-05-12T13:55:50.586Z,66.40
2023-05-12T13:58:19.575Z,68.00
2023-05-12T14:00:49.091Z,68.80
2023-05-12T14:03:19.025Z,69.10
2023-05-12T14:05:48.008Z,69.40
2023-05-12T14:08:16.644Z,69.50
2023-05-12T14:10:45.655Z,70.10
2023-05-12T14:13:14.383Z,70.60
2023-05-12T14:15:49.391Z,69.30
2023-05-12T14:18:21.099Z,70.60
2023-05-12T14:20:50.132Z,71.10
2023-05-12T14:23:18.356Z,71.60
2023-05-12T14:25:47.598Z,70.70
2023-05-12T14:28:16.289Z,71.20
2023-05-12T14:30:45.868Z,71.30
2023-05-12T14:33:14.286Z,71.10
2023-05-12T14:35:52.851Z,70.30
2023-05-12T14:38:24.610Z,71.20
2023-05-12T14:40:53.336Z,70.20
2023-05-12T14:43:23.407Z,70.90
2023-05-12T14:45:54.725Z,69.10
2023-05-12T14:48:23.747Z,69.10
2023-05-12T14:50:56.105Z,69.40
2023-05-12T14:53:25.178Z,69.30
2023-05-12T14:55:54.714Z,69.90
2023-05-12T14:58:24.128Z,70.10
2023-05-12T15:00:53.084Z,69.30
2023-05-12T15:03:21.901Z,68.70
2023-05-12T15:08:24.024Z,69.10
2023-05-12T15:10:53.711Z,69.40
2023-05-12T15:13:22.790Z,69.80
2023-05-12T15:15:52.979Z,70.30
2023-05-12T15:18:24.697Z,69.20
2023-05-12T15:20:53.035Z,68.00
2023-05-12T15:23:21.298Z,68.20
2023-05-12T15:25:50.943Z,68.60
2023-05-12T15:28:19.090Z,69.40
2023-05-12T15:30:56.107Z,69.70
2023-05-12T15:33:25.096Z,69.60
2023-05-12T15:35:55.211Z,69.50
2023-05-12T15:38:23.758Z,69.20
2023-05-12T15:40:54.099Z,70.10
2023-05-12T15:43:22.408Z,70.70
2023-05-12T15:45:51.168Z,71.10
2023-05-12T15:48:19.426Z,71.30
2023-05-12T15:50:48.500Z,70.60
2023-05-12T15:53:18.704Z,71.20
2023-05-12T15:55:47.324Z,69.80
2023-05-12T15:58:17.684Z,68.10
2023-05-12T16:00:46.648Z,67.60
2023-05-12T16:03:15.168Z,68.00
2023-05-12T16:05:44.216Z,68.40
2023-05-12T16:08:13.221Z,68.40
2023-05-12T16:10:42.433Z,68.70
2023-05-12T16:13:11.516Z,69.40
2023-05-12T16:15:42.104Z,70.60
2023-05-12T16:18:11.502Z,70.70
2023-05-12T16:20:41.724Z,71.30
2023-05-12T16:23:12.207Z,71.90
2023-05-12T16:25:42.054Z,72.40
2023-05-12T16:28:10.436Z,72.70
2023-05-12T16:30:39.318Z,72.90
2023-05-12T16:33:09.692Z,73.00
2023-05-12T16:35:38.955Z,72.80
2023-05-12T16:38:08.121Z,73.00
2023-05-12T16:40:38.822Z,72.10
2023-05-12T16:43:07.356Z,72.10
2023-05-12T16:45:36.239Z,72.40
2023-05-12T16:48:05.101Z,72.80
2023-05-12T16:50:35.682Z,72.80
2023-05-12T16:53:04.141Z,72.70
2023-05-12T16:55:32.642Z,72.60
2023-05-12T16:58:01.742Z,72.90
2023-05-12T17:00:31.653Z,72.60
2023-05-12T17:03:02.388Z,73.00
2023-05-12T17:05:32.611Z,73.20
2023-05-12T17:08:03.673Z,73.20
2023-05-12T17:10:33.842Z,73.50
2023-05-12T17:13:02.547Z,73.50
2023-05-12T17:15:34.303Z,73.30
2023-05-12T17:18:03.022Z,73.30
2023-05-12T17:20:32.195Z,73.10
2023-05-12T17:23:02.639Z,72.90
2023-05-12T17:25:31.621Z,73.00
2023-05-12T17:28:00.626Z,73.10
2023-05-12T17:30:29.246Z,73.00
2023-05-12T17:32:58.638Z,73.30
2023-05-12T17:35:27.313Z,73.80
2023-05-12T17:37:56.101Z,73.40
2023-05-12T17:40:26.494Z,73.40
2023-05-12T17:42:55.607Z,73.40
2023-05-12T17:45:24.153Z,73.60
2023-05-12T17:47:53.693Z,73.40
2023-05-12T17:50:22.570Z,73.70
2023-05-12T17:52:51.017Z,73.80
2023-05-12T17:55:19.875Z,73.70
2023-05-12T17:57:51.107Z,73.60
2023-05-12T18:00:19.872Z,73.70
2023-05-12T18:02:48.482Z,73.80
2023-05-12T18:05:17.025Z,73.90
2023-05-12T18:07:46.030Z,73.80
2023-05-12T18:10:15.104Z,73.90
2023-05-12T18:12:44.080Z,74.10
2023-05-12T18:15:17.083Z,73.90
2023-05-12T18:17:46.110Z,74.30
2023-05-12T18:20:14.722Z,74.00
2023-05-12T18:22:43.154Z,74.00
2023-05-12T18:25:13.051Z,74.20
2023-05-12T18:27:42.328Z,74.00
2023-05-12T18:30:12.288Z,74.10
2023-05-12T18:32:42.732Z,74.20
2023-05-12T18:35:12.735Z,74.10
2023-05-12T18:37:44.386Z,74.20
2023-05-12T18:40:13.661Z,74.30
2023-05-12T18:42:44.164Z,74.30
2023-05-12T18:45:13.727Z,74.30
2023-05-12T18:47:45.379Z,74.40
2023-05-12T18:50:14.606Z,74.40
2023-05-12T18:52:44.186Z,74.50
2023-05-12T18:55:13.144Z,74.30
2023-05-12T18:57:41.520Z,74.40
2023-05-12T19:00:11.549Z,74.60
2023-05-12T19:02:42.451Z,74.50
2023-05-12T19:05:13.043Z,74.60
2023-05-12T19:07:41.502Z,74.70
2023-05-12T19:10:10.858Z,74.70
2023-05-12T19:12:39.212Z,74.60
2023-05-12T19:15:12.824Z,74.60
2023-05-12T19:17:41.401Z,74.60
2023-05-12T19:20:10.892Z,74.70
2023-05-12T19:22:43.021Z,74.80
2023-05-12T19:25:11.849Z,74.80
2023-05-12T19:27:41.525Z,74.90
2023-05-12T19:30:12.255Z,74.80
2023-05-12T19:32:42.447Z,74.90
2023-05-12T19:35:11.739Z,74.90
2023-05-12T19:37:45.658Z,74.80
2023-05-12T19:40:14.740Z,74.80
2023-05-12T19:42:43.133Z,74.90
2023-05-12T19:45:12.549Z,74.90
2023-05-12T19:47:41.502Z,75.00
2023-05-12T19:50:12.415Z,75.00
2023-05-12T19:52:42.824Z,75.10
2023-05-12T19:55:11.757Z,75.10
2023-05-12T19:57:40.636Z,75.10
2023-05-12T20:00:10.285Z,75.20
2023-05-12T20:02:42.969Z,75.30
2023-05-12T20:05:13.483Z,75.30
2023-05-12T20:07:43.745Z,75.30
2023-05-12T20:10:12.603Z,75.30
2023-05-12T20:12:41.526Z,75.40
2023-05-12T20:15:11.796Z,75.40
2023-05-12T20:17:40.600Z,75.50
2023-05-12T20:20:11.669Z,75.70
2023-05-12T20:25:33.252Z,75.80
2023-05-12T20:28:02.482Z,76.00
2023-05-12T20:30:32.649Z,76.00
2023-05-12T20:33:01.487Z,76.10
2023-05-12T20:35:32.964Z,76.20
2023-05-12T20:38:01.931Z,76.40
2023-05-12T20:40:33.596Z,76.40
2023-05-12T20:43:02.996Z,76.60
2023-05-12T20:45:31.531Z,76.70
2023-05-12T20:48:00.662Z,76.80
2023-05-12T20:50:29.327Z,76.90
2023-05-12T20:55:56.901Z,77.00
2023-05-12T20:58:26.775Z,77.40
2023-05-12T21:00:55.420Z,77.50
2023-05-12T21:03:25.911Z,77.60
2023-05-12T21:05:56.404Z,77.60
2023-05-12T21:08:56.261Z,77.70
2023-05-12T21:11:48.416Z,78.00
2023-05-12T21:14:17.096Z,77.90
2023-05-12T21:16:47.679Z,77.90
2023-05-12T21:19:19.655Z,78.00
2023-05-12T21:21:48.040Z,78.10
2023-05-12T21:24:17.809Z,78.10
2023-05-12T21:26:51.151Z,78.00
2023-05-12T21:29:21.622Z,78.10
2023-05-12T21:31:50.286Z,78.10
2023-05-12T21:34:19.287Z,78.10
2023-05-12T21:36:47.837Z,78.20
2023-05-12T21:39:17.206Z,78.30
2023-05-12T21:41:46.039Z,78.30
2023-05-12T21:44:17.400Z,78.20
2023-05-12T21:46:53.671Z,78.10
2023-05-12T21:58:46.467Z,78.30
2023-05-12T22:01:45.717Z,78.30
2023-05-12T22:04:17.720Z,78.40
2023-05-12T22:06:52.720Z,78.40
2023-05-12T22:12:49.155Z,78.60
2023-05-12T22:15:29.951Z,78.60
2023-05-12T22:18:46.030Z,78.60
2023-05-12T22:21:25.933Z,78.60
2023-05-12T22:23:54.897Z,78.70
2023-05-12T22:26:28.828Z,78.80
2023-05-12T22:28:57.533Z,78.70
2023-05-12T22:31:26.154Z,78.80
2023-05-12T22:33:54.399Z,78.80
2023-05-12T22:36:24.563Z,78.70
2023-05-12T22:38:53.045Z,78.70
2023-05-12T22:41:21.489Z,78.70
2023-05-12T22:43:50.669Z,78.60
2023-05-12T22:46:19.337Z,78.60
2023-05-12T22:48:47.971Z,78.60
2023-05-12T22:51:18.617Z,78.70
2023-05-12T22:53:51.341Z,79.00
2023-05-12T22:56:20.375Z,79.00
2023-05-12T22:58:48.722Z,79.10
2023-05-12T23:01:18.822Z,78.90
2023-05-12T23:03:47.814Z,79.00
2023-05-12T23:06:17.216Z,78.90
2023-05-12T23:08:46.976Z,79.00
2023-05-12T23:11:17.186Z,79.10
2023-05-12T23:13:45.686Z,79.10
2023-05-12T23:16:14.269Z,79.00
2023-05-12T23:18:42.663Z,79.00
2023-05-12T23:21:11.537Z,78.90
2023-05-12T23:23:40.557Z,78.80
2023-05-12T23:26:14.135Z,79.00
2023-05-12T23:28:44.068Z,79.20
2023-05-12T23:31:12.891Z,79.10
2023-05-12T23:33:41.420Z,79.10
2023-05-12T23:36:10.776Z,79.10
2023-05-12T23:38:39.330Z,78.60
2023-05-12T23:41:08.209Z,78.40
2023-05-12T23:43:36.795Z,78.40
2023-05-12T23:46:06.732Z,78.40
2023-05-12T23:48:35.877Z,78.50
2023-05-12T23:51:04.325Z,78.50
2023-05-12T23:53:32.718Z,78.40
2023-05-12T23:56:01.680Z,78.40
2023-05-12T23:58:30.296Z,78.30
